Atalandi — SVBA — position and weather

sailwx.info

Track history (hours):
 
Tides and Currents Weather Stations Pressure Air Temp Water Temp Dewpoint Dewpoint Depression Visibility Wind Speed Wind Dir Waves Ship Positions

Atalandi

Last reported at 2015-Apr-15 13:28 UTC. Time now 2015-Apr-18 03:19 UTC.
Position N 54°11' E 004°39'.

Length 248 m; draft 8.5 m.

Type: Tanker. MMSI: 240269000.

Date/timePositionNaut miles runAvg speedWind from/ knotsBaromVisibWave heightAir tempDewpointWater temp
2015-Apr-15 13:28N 54°11' E 004°39'1010.9
2015-Apr-15 12:33N 54°02' E 004°43'1413.2
2015-Apr-15 11:31N 53°51' E 004°28'1413.4
2015-Apr-15 10:27N 53°41' E 004°10'1213.4
2015-Apr-15 09:33N 53°34' E 003°54'1313.3
2015-Apr-15 08:33N 53°24' E 003°40'1313.2
2015-Apr-15 07:33N 53°12' E 003°31'1312.9
2015-Apr-15 06:33N 52°60' E 003°23'1312.7
2015-Apr-15 05:32N 52°48' E 003°14'1512.7
2015-Apr-15 04:23N 52°35' E 003°04'1112.9
2015-Apr-15 03:33N 52°24' E 003°01'1413.0
2015-Apr-15 02:28N 52°14' E 003°18'1213.6
2015-Apr-15 01:33N 52°08' E 003°35'1312.6
2015-Apr-15 00:33N 52°03' E 003°53'8 8.1
2015-Apr-14 23:33N 51°58' E 004°04'0 0.2
2015-Apr-14 22:33N 51°58' E 004°04'0 0.0
2015-Apr-14 21:33N 51°58' E 004°04'0 0.0
2015-Apr-14 20:33N 51°58' E 004°04'0 0.0
2015-Apr-14 19:30N 51°58' E 004°04'0 0.0
2015-Apr-14 18:30N 51°58' E 004°04'0 0.0
2015-Apr-14 17:30N 51°58' E 004°04'0 0.0
2015-Apr-14 16:33N 51°58' E 004°04'0 0.0
2015-Apr-14 15:33N 51°58' E 004°04'0 0.0
2015-Apr-14 14:30N 51°58' E 004°04'0 0.0
2015-Apr-14 13:33N 51°58' E 004°04'0 0.0
2015-Apr-14 12:33N 51°58' E 004°04'0 0.0
2015-Apr-14 11:30N 51°58' E 004°04'0 0.0
2015-Apr-14 10:30N 51°58' E 004°04'0 0.0
2015-Apr-14 09:30N 51°58' E 004°04'0 0.0
2015-Apr-14 08:30N 51°58' E 004°04'0 0.0
2015-Apr-14 07:33N 51°58' E 004°04'0 0.0
2015-Apr-14 06:30N 51°58' E 004°04'0 0.0
2015-Apr-14 05:18N 51°58' E 004°04'0 0.0
2015-Apr-14 04:24N 51°58' E 004°04'0 0.0
2015-Apr-14 03:30N 51°58' E 004°04'0 0.0
2015-Apr-14 02:24N 51°58' E 004°04'0 0.0
2015-Apr-14 01:18N 51°58' E 004°04'0 0.0
2015-Apr-14 00:24N 51°58' E 004°04'0 0.0
2015-Apr-13 23:30N 51°58' E 004°04'0 0.0
2015-Apr-13 21:12N 51°58' E 004°04'0 0.0
2015-Apr-13 17:24N 51°58' E 004°04'0 0.0
2015-Apr-13 15:30N 51°58' E 004°04'0 0.3
2015-Apr-13 14:33N 51°58' E 004°04'5 4.6
2015-Apr-13 13:33N 52°00' E 003°58'7 7.3
2015-Apr-13 12:33N 52°01' E 003°46'9 8.9
2015-Apr-13 11:33N 51°60' E 003°32'1211.9
2015-Apr-13 10:33N 51°59' E 003°13'3 2.7
2015-Apr-13 09:22N 51°56' E 003°09'0 0.0
2015-Apr-13 08:19N 51°56' E 003°09'0 0.1
2015-Apr-13 05:22N 51°56' E 003°09'0 0.1
2015-Apr-13 04:19N 51°56' E 003°09'0 0.0
2015-Apr-12 19:16N 51°56' E 003°09'0 0.0
2015-Apr-12 18:25N 51°56' E 003°09'0 0.0
2015-Apr-12 17:19N 51°56' E 003°09'0 0.0
2015-Apr-12 16:28N 51°56' E 003°09'0 0.3
2015-Apr-12 15:28N 51°56' E 003°09'0 0.1
2015-Apr-12 14:32N 51°56' E 003°09'0 0.0
2015-Apr-12 13:31N 51°56' E 003°08'0 0.2
2015-Apr-12 12:13N 51°56' E 003°08'0 0.2
2015-Apr-12 11:31N 51°56' E 003°09'0 0.0
2015-Apr-12 10:22N 51°56' E 003°09'0 0.0
2015-Apr-12 09:28N 51°56' E 003°09'0 0.0
2015-Apr-12 08:25N 51°56' E 003°09'0 0.0
2015-Apr-12 07:31N 51°56' E 003°09'0 0.0
2015-Apr-12 06:28N 51°56' E 003°09'0 0.0
2015-Apr-12 05:31N 51°56' E 003°09'0 0.1
2015-Apr-12 04:31N 51°56' E 003°09'0 0.2
2015-Apr-12 03:31N 51°56' E 003°09'0 0.1
2015-Apr-12 02:28N 51°56' E 003°08'0 0.0
2015-Apr-12 00:22N 51°56' E 003°09'0 0.2
2015-Apr-11 23:28N 51°56' E 003°08'0 0.1
2015-Apr-11 22:31N 51°56' E 003°09'0 0.0
2015-Apr-11 21:25N 51°56' E 003°09'0 0.0
2015-Apr-11 20:31N 51°56' E 003°09'0 0.0
2015-Apr-11 19:28N 51°56' E 003°09'0 0.0
2015-Apr-11 18:31N 51°56' E 003°09'0 0.0
2015-Apr-11 17:31N 51°56' E 003°09'0 0.0
2015-Apr-11 16:22N 51°56' E 003°09'0 0.0
2015-Apr-11 10:10N 51°56' E 003°09'0 0.0
2015-Apr-11 04:25N 51°56' E 003°09'0 0.1
2015-Apr-11 03:28N 51°56' E 003°09'0 0.1
2015-Apr-11 00:19N 51°56' E 003°09'0 0.0
2015-Apr-10 23:31N 51°56' E 003°09'0 0.1
2015-Apr-10 22:31N 51°56' E 003°09'0 0.1
2015-Apr-10 21:31N 51°56' E 003°08'0 0.1
2015-Apr-10 18:10N 51°56' E 003°09'0 0.0
2015-Apr-10 17:07N 51°56' E 003°09'0 0.1
2015-Apr-10 15:31N 51°56' E 003°09'0 0.2
2015-Apr-10 14:31N 51°56' E 003°09'0 0.0
2015-Apr-10 13:07N 51°56' E 003°09'0 0.0
2015-Apr-10 12:22N 51°56' E 003°09'0 0.0
2015-Apr-10 11:31N 51°56' E 003°09'0 0.0
2015-Apr-10 09:31N 51°56' E 003°08'0 0.2
2015-Apr-10 08:31N 51°56' E 003°09'0 0.1
2015-Apr-10 07:31N 51°56' E 003°09'0 0.0
2015-Apr-10 06:31N 51°56' E 003°09'0 0.0
2015-Apr-10 05:31N 51°56' E 003°09'0 0.0
2015-Apr-10 04:31N 51°56' E 003°09'0 0.0
2015-Apr-10 03:28N 51°56' E 003°09'0 0.2
2015-Apr-10 02:25N 51°56' E 003°09'0 0.1
2015-Apr-10 01:25N 51°56' E 003°09'0 0.0
2015-Apr-10 00:28N 51°56' E 003°08'0 0.0
2015-Apr-09 23:22N 51°56' E 003°08'0 0.0
2015-Apr-09 22:31N 51°56' E 003°08'0 0.0
2015-Apr-09 21:28N 51°56' E 003°08'0 0.2
2015-Apr-09 20:31N 51°56' E 003°08'0 0.1
2015-Apr-09 19:31N 51°56' E 003°09'0 0.0
2015-Apr-09 18:31N 51°56' E 003°09'0 0.0
2015-Apr-09 17:28N 51°56' E 003°09'0 0.0
2015-Apr-09 16:25N 51°56' E 003°09'0 0.1
2015-Apr-09 15:25N 51°56' E 003°09'0 0.2
2015-Apr-09 14:25N 51°56' E 003°09'0 0.1
2015-Apr-09 13:31N 51°56' E 003°09'0 0.0
2015-Apr-09 10:25N 51°56' E 003°09'0 0.0
2015-Apr-09 09:13N 51°56' E 003°09'0 0.2
2015-Apr-09 08:19N 51°56' E 003°09'0 0.1
2015-Apr-09 07:16N 51°56' E 003°09'0 0.0
2015-Apr-09 06:31N 51°56' E 003°09'0 0.0
2015-Apr-09 05:16N 51°56' E 003°09'0 0.0
2015-Apr-09 04:31N 51°56' E 003°09'0 0.0
2015-Apr-09 03:31N 51°56' E 003°09'0 0.1
2015-Apr-09 02:28N 51°56' E 003°09'0 0.2
2015-Apr-09 01:28N 51°56' E 003°09'0 0.0
2015-Apr-09 00:22N 51°56' E 003°08'0 0.0
2015-Apr-08 23:16N 51°56' E 003°08'0 0.0
2015-Apr-08 22:13N 51°56' E 003°08'0 0.0
2015-Apr-08 21:25N 51°56' E 003°09'0 0.1
2015-Apr-08 20:28N 51°56' E 003°08'0 0.2
2015-Apr-08 19:28N 51°56' E 003°09'0 0.1
2015-Apr-08 18:29N 51°56' E 003°09'0 0.0
2015-Apr-08 17:28N 51°56' E 003°09'0 0.0
2015-Apr-08 16:16N 51°56' E 003°09'0 0.0
2015-Apr-08 15:22N 51°56' E 003°09'0 0.1
2015-Apr-08 14:19N 51°56' E 003°09'0 0.2
2015-Apr-08 13:16N 51°56' E 003°09'0 0.0
2015-Apr-08 11:28N 51°56' E 003°09'0 0.0
2015-Apr-08 09:10N 51°56' E 003°09'0 0.1
2015-Apr-08 08:25N 51°56' E 003°09'0 0.2
2015-Apr-08 07:19N 51°56' E 003°09'0 0.1
2015-Apr-08 06:31N 51°56' E 003°09'0 0.0
2015-Apr-08 05:31N 51°56' E 003°09'0 0.0
2015-Apr-08 04:25N 51°56' E 003°09'0 0.0
2015-Apr-08 03:31N 51°56' E 003°09'0 0.0
2015-Apr-08 02:31N 51°56' E 003°09'0 0.2
2015-Apr-08 01:14N 51°56' E 003°09'0 0.0
2015-Apr-07 21:16N 51°56' E 003°08'0 0.0
2015-Apr-07 20:19N 51°56' E 003°08'0 0.2
2015-Apr-07 19:32N 51°56' E 003°08'0 0.1
2015-Apr-07 17:31N 51°56' E 003°09'0 0.0
2015-Apr-07 16:31N 51°56' E 003°09'0 0.0
2015-Apr-07 15:28N 51°56' E 003°09'0 0.0
2015-Apr-07 14:19N 51°56' E 003°09'0 0.1
2015-Apr-07 13:28N 51°56' E 003°09'0 0.2
2015-Apr-07 12:22N 51°56' E 003°09'0 0.0
2015-Apr-07 10:28N 51°56' E 003°08'0 0.0
2015-Apr-07 09:22N 51°56' E 003°08'0 0.0
2015-Apr-07 08:28N 51°56' E 003°08'0 0.1
2015-Apr-07 07:31N 51°56' E 003°08'0 0.1
2015-Apr-07 06:31N 51°56' E 003°09'0 0.0
2015-Apr-07 05:31N 51°56' E 003°09'0 0.0
2015-Apr-07 04:25N 51°56' E 003°09'0 0.0
2015-Apr-07 03:31N 51°56' E 003°09'0 0.0
2015-Apr-07 02:28N 51°56' E 003°09'0 0.1
2015-Apr-07 01:23N 51°56' E 003°09'0 0.1
2015-Apr-06 22:04N 51°56' E 003°08'0 0.0
2015-Apr-06 20:13N 51°56' E 003°08'0 0.1
2015-Apr-06 19:31N 51°56' E 003°08'0 0.2
2015-Apr-06 18:31N 51°56' E 003°09'20 5.0
2015-Apr-06 14:31N 51°59' E 002°37'9 9.4
2015-Apr-06 13:33N 52°08' E 002°37'1210.3
2015-Apr-06 12:26N 52°19' E 002°44'1111.6
2015-Apr-06 11:28N 52°29' E 002°52'1513.7
2015-Apr-06 10:21N 52°42' E 003°04'1114.1
2015-Apr-06 09:32N 52°52' E 003°13'1413.8
2015-Apr-06 08:31N 53°06' E 003°21'1412.8
2015-Apr-06 07:26N 53°19' E 003°28'1112.1
2015-Apr-06 06:33N 53°29' E 003°34'1212.0
2015-Apr-06 05:31N 53°41' E 003°40'2612.3
2015-Apr-06 03:26N 53°58' E 004°13'  
Track history (hours):
 
Tides and Currents Weather Stations Pressure Air Temp Water Temp Dewpoint Dewpoint Depression Visibility Wind Speed Wind Dir Waves Ship Positions

Atalandi

Last reported at 2015-Apr-15 13:28 UTC. Time now 2015-Apr-18 03:19 UTC.
Position N 54°11' E 004°39'.

Length 248 m; draft 8.5 m.

Type: Tanker. MMSI: 240269000.

Date/timePositionNaut miles runAvg speedWind from/ knotsBaromVisibWave heightAir tempDewpointWater temp
2015-Apr-15 13:28N 54°11' E 004°39'1010.9
2015-Apr-15 12:33N 54°02' E 004°43'1413.2
2015-Apr-15 11:31N 53°51' E 004°28'1413.4
2015-Apr-15 10:27N 53°41' E 004°10'1213.4
2015-Apr-15 09:33N 53°34' E 003°54'1313.3
2015-Apr-15 08:33N 53°24' E 003°40'1313.2
2015-Apr-15 07:33N 53°12' E 003°31'1312.9
2015-Apr-15 06:33N 52°60' E 003°23'1312.7
2015-Apr-15 05:32N 52°48' E 003°14'1512.7
2015-Apr-15 04:23N 52°35' E 003°04'1112.9
2015-Apr-15 03:33N 52°24' E 003°01'1413.0
2015-Apr-15 02:28N 52°14' E 003°18'1213.6
2015-Apr-15 01:33N 52°08' E 003°35'1312.6
2015-Apr-15 00:33N 52°03' E 003°53'8 8.1
2015-Apr-14 23:33N 51°58' E 004°04'0 0.2
2015-Apr-14 22:33N 51°58' E 004°04'0 0.0
2015-Apr-14 21:33N 51°58' E 004°04'0 0.0
2015-Apr-14 20:33N 51°58' E 004°04'0 0.0
2015-Apr-14 19:30N 51°58' E 004°04'0 0.0
2015-Apr-14 18:30N 51°58' E 004°04'0 0.0
2015-Apr-14 17:30N 51°58' E 004°04'0 0.0
2015-Apr-14 16:33N 51°58' E 004°04'0 0.0
2015-Apr-14 15:33N 51°58' E 004°04'0 0.0
2015-Apr-14 14:30N 51°58' E 004°04'0 0.0
2015-Apr-14 13:33N 51°58' E 004°04'0 0.0
2015-Apr-14 12:33N 51°58' E 004°04'0 0.0
2015-Apr-14 11:30N 51°58' E 004°04'0 0.0
2015-Apr-14 10:30N 51°58' E 004°04'0 0.0
2015-Apr-14 09:30N 51°58' E 004°04'0 0.0
2015-Apr-14 08:30N 51°58' E 004°04'0 0.0
2015-Apr-14 07:33N 51°58' E 004°04'0 0.0
2015-Apr-14 06:30N 51°58' E 004°04'0 0.0
2015-Apr-14 05:18N 51°58' E 004°04'0 0.0
2015-Apr-14 04:24N 51°58' E 004°04'0 0.0
2015-Apr-14 03:30N 51°58' E 004°04'0 0.0
2015-Apr-14 02:24N 51°58' E 004°04'0 0.0
2015-Apr-14 01:18N 51°58' E 004°04'0 0.0
2015-Apr-14 00:24N 51°58' E 004°04'0 0.0
2015-Apr-13 23:30N 51°58' E 004°04'0 0.0
2015-Apr-13 21:12N 51°58' E 004°04'0 0.0
2015-Apr-13 17:24N 51°58' E 004°04'0 0.0
2015-Apr-13 15:30N 51°58' E 004°04'0 0.3
2015-Apr-13 14:33N 51°58' E 004°04'5 4.6
2015-Apr-13 13:33N 52°00' E 003°58'7 7.3
2015-Apr-13 12:33N 52°01' E 003°46'9 8.9
2015-Apr-13 11:33N 51°60' E 003°32'1211.9
2015-Apr-13 10:33N 51°59' E 003°13'3 2.7
2015-Apr-13 09:22N 51°56' E 003°09'0 0.0
2015-Apr-13 08:19N 51°56' E 003°09'0 0.1
2015-Apr-13 05:22N 51°56' E 003°09'0 0.1
2015-Apr-13 04:19N 51°56' E 003°09'0 0.0
2015-Apr-12 19:16N 51°56' E 003°09'0 0.0
2015-Apr-12 18:25N 51°56' E 003°09'0 0.0
2015-Apr-12 17:19N 51°56' E 003°09'0 0.0
2015-Apr-12 16:28N 51°56' E 003°09'0 0.3
2015-Apr-12 15:28N 51°56' E 003°09'0 0.1
2015-Apr-12 14:32N 51°56' E 003°09'0 0.0
2015-Apr-12 13:31N 51°56' E 003°08'0 0.2
2015-Apr-12 12:13N 51°56' E 003°08'0 0.2
2015-Apr-12 11:31N 51°56' E 003°09'0 0.0
2015-Apr-12 10:22N 51°56' E 003°09'0 0.0
2015-Apr-12 09:28N 51°56' E 003°09'0 0.0
2015-Apr-12 08:25N 51°56' E 003°09'0 0.0
2015-Apr-12 07:31N 51°56' E 003°09'0 0.0
2015-Apr-12 06:28N 51°56' E 003°09'0 0.0
2015-Apr-12 05:31N 51°56' E 003°09'0 0.1
2015-Apr-12 04:31N 51°56' E 003°09'0 0.2
2015-Apr-12 03:31N 51°56' E 003°09'0 0.1
2015-Apr-12 02:28N 51°56' E 003°08'0 0.0
2015-Apr-12 00:22N 51°56' E 003°09'0 0.2
2015-Apr-11 23:28N 51°56' E 003°08'0 0.1
2015-Apr-11 22:31N 51°56' E 003°09'0 0.0
2015-Apr-11 21:25N 51°56' E 003°09'0 0.0
2015-Apr-11 20:31N 51°56' E 003°09'0 0.0
2015-Apr-11 19:28N 51°56' E 003°09'0 0.0
2015-Apr-11 18:31N 51°56' E 003°09'0 0.0
2015-Apr-11 17:31N 51°56' E 003°09'0 0.0
2015-Apr-11 16:22N 51°56' E 003°09'0 0.0
2015-Apr-11 10:10N 51°56' E 003°09'0 0.0
2015-Apr-11 04:25N 51°56' E 003°09'0 0.1
2015-Apr-11 03:28N 51°56' E 003°09'0 0.1
2015-Apr-11 00:19N 51°56' E 003°09'0 0.0
2015-Apr-10 23:31N 51°56' E 003°09'0 0.1
2015-Apr-10 22:31N 51°56' E 003°09'0 0.1
2015-Apr-10 21:31N 51°56' E 003°08'0 0.1
2015-Apr-10 18:10N 51°56' E 003°09'0 0.0
2015-Apr-10 17:07N 51°56' E 003°09'0 0.1
2015-Apr-10 15:31N 51°56' E 003°09'0 0.2
2015-Apr-10 14:31N 51°56' E 003°09'0 0.0
2015-Apr-10 13:07N 51°56' E 003°09'0 0.0
2015-Apr-10 12:22N 51°56' E 003°09'0 0.0
2015-Apr-10 11:31N 51°56' E 003°09'0 0.0
2015-Apr-10 09:31N 51°56' E 003°08'0 0.2
2015-Apr-10 08:31N 51°56' E 003°09'0 0.1
2015-Apr-10 07:31N 51°56' E 003°09'0 0.0
2015-Apr-10 06:31N 51°56' E 003°09'0 0.0
2015-Apr-10 05:31N 51°56' E 003°09'0 0.0
2015-Apr-10 04:31N 51°56' E 003°09'0 0.0
2015-Apr-10 03:28N 51°56' E 003°09'0 0.2
2015-Apr-10 02:25N 51°56' E 003°09'0 0.1
2015-Apr-10 01:25N 51°56' E 003°09'0 0.0
2015-Apr-10 00:28N 51°56' E 003°08'0 0.0
2015-Apr-09 23:22N 51°56' E 003°08'0 0.0
2015-Apr-09 22:31N 51°56' E 003°08'0 0.0
2015-Apr-09 21:28N 51°56' E 003°08'0 0.2
2015-Apr-09 20:31N 51°56' E 003°08'0 0.1
2015-Apr-09 19:31N 51°56' E 003°09'0 0.0
2015-Apr-09 18:31N 51°56' E 003°09'0 0.0
2015-Apr-09 17:28N 51°56' E 003°09'0 0.0
2015-Apr-09 16:25N 51°56' E 003°09'0 0.1
2015-Apr-09 15:25N 51°56' E 003°09'0 0.2
2015-Apr-09 14:25N 51°56' E 003°09'0 0.1
2015-Apr-09 13:31N 51°56' E 003°09'0 0.0
2015-Apr-09 10:25N 51°56' E 003°09'0 0.0
2015-Apr-09 09:13N 51°56' E 003°09'0 0.2
2015-Apr-09 08:19N 51°56' E 003°09'0 0.1
2015-Apr-09 07:16N 51°56' E 003°09'0 0.0
2015-Apr-09 06:31N 51°56' E 003°09'0 0.0
2015-Apr-09 05:16N 51°56' E 003°09'0 0.0
2015-Apr-09 04:31N 51°56' E 003°09'0 0.0
2015-Apr-09 03:31N 51°56' E 003°09'0 0.1
2015-Apr-09 02:28N 51°56' E 003°09'0 0.2
2015-Apr-09 01:28N 51°56' E 003°09'0 0.0
2015-Apr-09 00:22N 51°56' E 003°08'0 0.0
2015-Apr-08 23:16N 51°56' E 003°08'0 0.0
2015-Apr-08 22:13N 51°56' E 003°08'0 0.0
2015-Apr-08 21:25N 51°56' E 003°09'0 0.1
2015-Apr-08 20:28N 51°56' E 003°08'0 0.2
2015-Apr-08 19:28N 51°56' E 003°09'0 0.1
2015-Apr-08 18:29N 51°56' E 003°09'0 0.0
2015-Apr-08 17:28N 51°56' E 003°09'0 0.0
2015-Apr-08 16:16N 51°56' E 003°09'0 0.0
2015-Apr-08 15:22N 51°56' E 003°09'0 0.1
2015-Apr-08 14:19N 51°56' E 003°09'0 0.2
2015-Apr-08 13:16N 51°56' E 003°09'0 0.0
2015-Apr-08 11:28N 51°56' E 003°09'0 0.0
2015-Apr-08 09:10N 51°56' E 003°09'0 0.1
2015-Apr-08 08:25N 51°56' E 003°09'0 0.2
2015-Apr-08 07:19N 51°56' E 003°09'0 0.1
2015-Apr-08 06:31N 51°56' E 003°09'0 0.0
2015-Apr-08 05:31N 51°56' E 003°09'0 0.0
2015-Apr-08 04:25N 51°56' E 003°09'0 0.0
2015-Apr-08 03:31N 51°56' E 003°09'0 0.0
2015-Apr-08 02:31N 51°56' E 003°09'0 0.2
2015-Apr-08 01:14N 51°56' E 003°09'0 0.0
2015-Apr-07 21:16N 51°56' E 003°08'0 0.0
2015-Apr-07 20:19N 51°56' E 003°08'0 0.2
2015-Apr-07 19:32N 51°56' E 003°08'0 0.1
2015-Apr-07 17:31N 51°56' E 003°09'0 0.0
2015-Apr-07 16:31N 51°56' E 003°09'0 0.0
2015-Apr-07 15:28N 51°56' E 003°09'0 0.0
2015-Apr-07 14:19N 51°56' E 003°09'0 0.1
2015-Apr-07 13:28N 51°56' E 003°09'0 0.2
2015-Apr-07 12:22N 51°56' E 003°09'0 0.0
2015-Apr-07 10:28N 51°56' E 003°08'0 0.0
2015-Apr-07 09:22N 51°56' E 003°08'0 0.0
2015-Apr-07 08:28N 51°56' E 003°08'0 0.1
2015-Apr-07 07:31N 51°56' E 003°08'0 0.1
2015-Apr-07 06:31N 51°56' E 003°09'0 0.0
2015-Apr-07 05:31N 51°56' E 003°09'0 0.0
2015-Apr-07 04:25N 51°56' E 003°09'0 0.0
2015-Apr-07 03:31N 51°56' E 003°09'0 0.0
2015-Apr-07 02:28N 51°56' E 003°09'0 0.1
2015-Apr-07 01:23N 51°56' E 003°09'0 0.1
2015-Apr-06 22:04N 51°56' E 003°08'0 0.0
2015-Apr-06 20:13N 51°56' E 003°08'0 0.1
2015-Apr-06 19:31N 51°56' E 003°08'0 0.2
2015-Apr-06 18:31N 51°56' E 003°09'20 5.0
2015-Apr-06 14:31N 51°59' E 002°37'9 9.4
2015-Apr-06 13:33N 52°08' E 002°37'1210.3
2015-Apr-06 12:26N 52°19' E 002°44'1111.6
2015-Apr-06 11:28N 52°29' E 002°52'1513.7
2015-Apr-06 10:21N 52°42' E 003°04'1114.1
2015-Apr-06 09:32N 52°52' E 003°13'1413.8
2015-Apr-06 08:31N 53°06' E 003°21'1412.8
2015-Apr-06 07:26N 53°19' E 003°28'1112.1
2015-Apr-06 06:33N 53°29' E 003°34'1212.0
2015-Apr-06 05:31N 53°41' E 003°40'2612.3
2015-Apr-06 03:26N 53°58' E 004°13'  

Dump ship's entire track history